Terminal Aerodrome Forecast
Issued by NWS Jackson, MS

Home | Current Version | Previous Version | Text Only | Print | Product List | Glossary On
Versions: 1 2 3 4 5 6 7 8 9 10 11 12 13 14 15 16
175
FTUS44 KJAN 161124
TAFGWO
TAF
KGWO 161124Z 1612/1712 20007KT P6SM OVC009
     FM161400 22008KT P6SM BKN015 BKN090
     FM161600 21008KT P6SM VCSH BKN025
     FM161800 21008KT P6SM VCTS SCT040CB BKN090
     FM170000 19006KT P6SM BKN090=

USA.gov is the U.S. government's official web portal to all federal, state and local government web resources and services.